createdAt,value
2023-02-07T00:01:16.808Z,64.56
2023-02-07T00:03:44.760Z,64.28
2023-02-07T00:06:17.485Z,64.01
2023-02-07T00:08:44.380Z,64.34
2023-02-07T00:11:16.306Z,64.14
2023-02-07T00:13:44.585Z,63.30
2023-02-07T00:16:11.975Z,63.16
2023-02-07T00:18:40.596Z,64.44
2023-02-07T00:21:10.000Z,63.48
2023-02-07T00:23:37.573Z,63.74
2023-02-07T00:26:05.846Z,63.94
2023-02-07T00:28:32.564Z,64.46
2023-02-07T00:31:27.492Z,63.77
2023-02-07T00:33:57.165Z,63.76
2023-02-07T00:36:25.236Z,64.00
2023-02-07T00:38:55.366Z,63.85
2023-02-07T00:41:21.963Z,63.69
2023-02-07T00:43:48.540Z,62.96
2023-02-07T00:46:15.928Z,64.11
2023-02-07T00:48:42.622Z,63.09
2023-02-07T00:51:10.795Z,62.68
2023-02-07T00:53:39.381Z,64.67
2023-02-07T00:56:07.917Z,63.25
2023-02-07T00:58:35.072Z,64.13
2023-02-07T01:01:01.846Z,62.58
2023-02-07T01:03:28.451Z,63.44
2023-02-07T01:05:56.269Z,63.83
2023-02-07T01:08:25.173Z,63.44
2023-02-07T01:10:51.772Z,64.39
2023-02-07T01:13:18.339Z,62.11
2023-02-07T01:15:46.836Z,63.42
2023-02-07T01:18:15.351Z,63.33
2023-02-07T01:20:42.059Z,63.00
2023-02-07T01:23:08.610Z,63.52
2023-02-07T01:25:35.282Z,63.54
2023-02-07T01:28:03.821Z,63.87
2023-02-07T01:30:30.417Z,62.12
2023-02-07T01:32:57.816Z,63.13
2023-02-07T01:35:25.220Z,62.81
2023-02-07T01:37:53.096Z,63.61
2023-02-07T01:40:19.772Z,63.81
2023-02-07T01:42:46.411Z,61.76
2023-02-07T01:45:24.068Z,63.89
2023-02-07T01:47:54.175Z,63.35
2023-02-07T01:50:21.825Z,63.49
2023-02-07T01:52:48.779Z,63.27
2023-02-07T01:55:21.339Z,63.63
2023-02-07T01:57:48.159Z,63.93
2023-02-07T02:00:17.422Z,64.19
2023-02-07T02:02:44.395Z,64.88
2023-02-07T02:05:14.460Z,64.50
2023-02-07T02:07:41.612Z,62.76
2023-02-07T02:10:15.784Z,65.24
2023-02-07T02:12:45.153Z,61.91
2023-02-07T02:15:30.769Z,63.88
2023-02-07T02:18:03.316Z,63.05
2023-02-07T02:21:10.308Z,63.56
2023-02-07T02:24:00.544Z,62.48
2023-02-07T02:26:55.468Z,63.90
2023-02-07T02:29:43.763Z,62.78
2023-02-07T02:32:45.248Z,63.90
2023-02-07T02:35:30.056Z,63.70
2023-02-07T02:38:21.690Z,65.21
2023-02-07T02:41:12.577Z,63.18
2023-02-07T02:44:02.984Z,63.58
2023-02-07T02:46:38.635Z,62.20
2023-02-07T02:49:08.108Z,63.63
2023-02-07T02:51:34.697Z,65.24
2023-02-07T02:54:01.552Z,63.38
2023-02-07T02:56:55.998Z,63.09
2023-02-07T02:59:50.586Z,64.04
2023-02-07T03:02:41.734Z,63.86
2023-02-07T03:05:14.399Z,62.87
2023-02-07T03:08:03.490Z,63.35
2023-02-07T03:10:50.480Z,62.71
2023-02-07T03:13:30.005Z,63.82
2023-02-07T03:16:21.876Z,63.08
2023-02-07T03:19:04.024Z,61.79
2023-02-07T03:21:41.629Z,62.92
2023-02-07T03:24:21.735Z,62.46
2023-02-07T03:26:51.754Z,63.98
2023-02-07T03:29:21.119Z,64.66
2023-02-07T03:31:51.519Z,62.75
2023-02-07T03:34:23.327Z,61.18
2023-02-07T03:36:52.349Z,62.61
2023-02-07T03:39:19.126Z,63.81
2023-02-07T03:41:52.584Z,63.50
2023-02-07T03:44:22.748Z,62.35
2023-02-07T03:46:50.685Z,62.24
2023-02-07T03:49:17.665Z,61.70
2023-02-07T03:51:44.853Z,62.92
2023-02-07T03:54:11.590Z,60.78
2023-02-07T03:56:38.294Z,62.99
2023-02-07T03:59:05.197Z,62.67
2023-02-07T04:01:31.848Z,61.37
2023-02-07T04:03:58.436Z,63.95
2023-02-07T04:06:25.071Z,62.53
2023-02-07T04:08:51.936Z,62.69
2023-02-07T04:11:18.616Z,63.19
2023-02-07T04:13:45.173Z,61.98
2023-02-07T04:16:12.052Z,62.37
2023-02-07T04:18:38.614Z,61.80
2023-02-07T04:21:07.462Z,63.23
2023-02-07T04:23:35.113Z,63.51
2023-02-07T04:26:01.970Z,61.93
2023-02-07T04:28:29.152Z,61.45
2023-02-07T04:30:56.446Z,60.43
2023-02-07T04:33:23.060Z,61.20
2023-02-07T04:35:57.686Z,63.21
2023-02-07T04:38:24.547Z,61.04
2023-02-07T04:40:51.397Z,62.83
2023-02-07T04:43:18.199Z,61.39
2023-02-07T04:45:48.320Z,61.11
2023-02-07T04:48:15.262Z,61.59
2023-02-07T04:50:41.932Z,62.58
2023-02-07T04:53:08.471Z,60.87
2023-02-07T04:55:37.334Z,61.07
2023-02-07T04:58:07.324Z,62.19
2023-02-07T05:00:34.643Z,62.24
2023-02-07T05:03:01.198Z,61.56
2023-02-07T05:05:27.752Z,61.78
2023-02-07T05:07:54.493Z,61.70
2023-02-07T05:10:21.096Z,62.61
2023-02-07T05:12:47.715Z,63.20
2023-02-07T05:15:14.353Z,60.47
2023-02-07T05:17:41.208Z,60.74
2023-02-07T05:20:08.618Z,61.85
2023-02-07T05:22:35.234Z,63.17
2023-02-07T05:25:01.754Z,63.02
2023-02-07T05:27:28.341Z,61.44
2023-02-07T05:29:54.942Z,61.67
2023-02-07T05:32:39.877Z,61.88
2023-02-07T05:35:06.543Z,61.75
2023-02-07T05:37:33.162Z,61.14
2023-02-07T05:39:59.760Z,61.10
2023-02-07T05:42:26.544Z,61.26
2023-02-07T05:44:53.692Z,61.15
2023-02-07T05:47:20.265Z,59.77
2023-02-07T05:49:46.833Z,61.07
2023-02-07T05:52:13.376Z,60.74
2023-02-07T05:54:40.028Z,60.78
2023-02-07T05:57:06.654Z,60.34
2023-02-07T05:59:33.307Z,61.37
2023-02-07T06:01:59.902Z,62.73
2023-02-07T06:04:26.570Z,61.41
2023-02-07T06:06:53.133Z,61.32
2023-02-07T06:09:19.761Z,60.88
2023-02-07T06:11:46.327Z,60.96
2023-02-07T06:14:12.948Z,60.83
2023-02-07T06:16:39.533Z,60.08
2023-02-07T06:19:06.300Z,59.29
2023-02-07T06:21:45.733Z,60.62
2023-02-07T06:24:12.919Z,60.21
2023-02-07T06:26:39.475Z,60.10
2023-02-07T06:29:06.177Z,59.99
2023-02-07T06:31:32.802Z,60.95
2023-02-07T06:33:59.405Z,60.64
2023-02-07T06:36:25.966Z,60.12
2023-02-07T06:38:55.716Z,61.26
2023-02-07T06:41:22.695Z,61.93
2023-02-07T06:43:49.256Z,61.20
2023-02-07T06:46:15.985Z,61.62
2023-02-07T06:48:42.638Z,60.27
2023-02-07T06:51:09.243Z,58.96
2023-02-07T06:53:36.029Z,59.98
2023-02-07T06:56:02.682Z,60.15
2023-02-07T06:58:29.398Z,60.51
2023-02-07T07:00:56.047Z,59.87
2023-02-07T07:03:27.097Z,58.91
2023-02-07T07:05:53.793Z,59.93
2023-02-07T07:08:20.773Z,60.70
2023-02-07T07:10:47.389Z,60.30
2023-02-07T07:13:14.020Z,59.55
2023-02-07T07:15:40.920Z,60.36
2023-02-07T07:18:07.838Z,60.09
2023-02-07T07:20:34.650Z,60.74
2023-02-07T07:23:01.282Z,60.77
2023-02-07T07:25:27.840Z,62.25
2023-02-07T07:27:54.475Z,60.33
2023-02-07T07:30:21.631Z,61.29
2023-02-07T07:32:48.206Z,60.90
2023-02-07T07:35:14.796Z,61.51
2023-02-07T07:37:41.938Z,62.09
2023-02-07T07:40:09.359Z,61.30
2023-02-07T07:42:36.880Z,60.74
2023-02-07T07:45:23.691Z,61.24
2023-02-07T07:47:50.319Z,60.74
2023-02-07T07:50:16.975Z,59.71
2023-02-07T07:52:43.540Z,61.01
2023-02-07T07:55:10.511Z,60.31
2023-02-07T07:57:37.686Z,61.30
2023-02-07T08:00:05.103Z,60.48
2023-02-07T08:02:39.862Z,60.52
2023-02-07T08:05:06.630Z,61.10
2023-02-07T08:07:33.245Z,60.76
2023-02-07T08:09:59.792Z,60.59
2023-02-07T08:12:26.497Z,60.35
2023-02-07T08:14:53.081Z,60.33
2023-02-07T08:17:19.713Z,59.84
2023-02-07T08:19:46.260Z,60.86
2023-02-07T08:22:14.566Z,59.66
2023-02-07T08:24:41.897Z,60.71
2023-02-07T08:27:08.911Z,60.19
2023-02-07T08:29:35.477Z,61.46
2023-02-07T08:32:02.103Z,59.05
2023-02-07T08:34:28.907Z,60.04
2023-02-07T08:36:55.798Z,61.08
2023-02-07T08:39:22.392Z,60.52
2023-02-07T08:41:48.934Z,60.69
2023-02-07T08:44:15.480Z,60.97
2023-02-07T08:46:42.607Z,61.22
2023-02-07T08:49:09.288Z,60.68
2023-02-07T08:51:35.844Z,61.41
2023-02-07T08:54:02.389Z,60.48
2023-02-07T08:56:28.949Z,60.15
2023-02-07T08:58:55.520Z,61.04
2023-02-07T09:01:22.607Z,60.19
2023-02-07T09:03:49.171Z,59.95
2023-02-07T09:06:15.962Z,60.79
2023-02-07T09:08:42.501Z,60.24
2023-02-07T09:11:09.500Z,60.35
2023-02-07T09:13:36.587Z,59.83
2023-02-07T09:16:03.150Z,61.14
2023-02-07T09:18:30.633Z,61.79
2023-02-07T09:20:57.280Z,61.16
2023-02-07T09:23:24.034Z,61.60
2023-02-07T09:25:52.651Z,61.72
2023-02-07T09:28:22.176Z,61.61
2023-02-07T09:30:49.921Z,62.03
2023-02-07T09:33:17.064Z,62.01
2023-02-07T09:35:47.256Z,62.45
2023-02-07T09:38:27.298Z,62.42
2023-02-07T09:40:54.971Z,61.61
2023-02-07T09:43:38.784Z,61.85
2023-02-07T09:46:13.533Z,61.42
2023-02-07T09:48:52.077Z,61.62
2023-02-07T09:51:23.626Z,61.42
2023-02-07T09:53:54.366Z,61.29
2023-02-07T09:56:24.324Z,61.46
2023-02-07T09:59:09.528Z,60.95
2023-02-07T10:01:50.492Z,61.11
2023-02-07T10:04:29.115Z,61.41
2023-02-07T10:06:58.118Z,60.57
2023-02-07T10:09:33.147Z,60.89
2023-02-07T10:12:14.771Z,60.85
2023-02-07T10:15:08.055Z,61.12
2023-02-07T10:17:50.651Z,61.06
2023-02-07T10:20:36.839Z,60.26
2023-02-07T10:23:20.847Z,60.94
2023-02-07T10:25:48.508Z,60.14
2023-02-07T10:28:15.147Z,60.14
2023-02-07T10:30:54.258Z,59.40
2023-02-07T10:33:25.962Z,59.12
2023-02-07T10:35:53.438Z,60.07
2023-02-07T10:38:30.789Z,60.36
2023-02-07T10:41:11.169Z,60.24
2023-02-07T10:43:39.605Z,60.37
2023-02-07T10:46:09.083Z,60.15
2023-02-07T10:48:36.915Z,59.93
2023-02-07T10:51:12.677Z,60.08
2023-02-07T10:53:56.503Z,59.85
2023-02-07T10:56:27.749Z,59.30
2023-02-07T10:58:56.833Z,59.68
2023-02-07T11:01:27.885Z,60.07
2023-02-07T11:03:54.956Z,59.67
2023-02-07T11:06:33.097Z,59.67
2023-02-07T11:09:20.772Z,58.80
2023-02-07T11:11:51.827Z,59.37
2023-02-07T11:14:28.153Z,58.14
2023-02-07T11:17:01.580Z,59.01
2023-02-07T11:19:30.332Z,58.51
2023-02-07T11:22:14.073Z,58.65
2023-02-07T11:24:42.346Z,58.84
2023-02-07T11:27:17.993Z,58.51
2023-02-07T11:29:50.470Z,58.68
2023-02-07T11:32:17.880Z,58.99
2023-02-07T11:35:13.969Z,58.56
2023-02-07T11:37:48.124Z,58.50
2023-02-07T11:40:31.416Z,59.07
2023-02-07T11:43:13.065Z,58.14
2023-02-07T11:45:43.981Z,58.37
2023-02-07T11:48:36.592Z,58.37
2023-02-07T11:51:07.257Z,58.30
2023-02-07T11:53:44.618Z,58.76
2023-02-07T11:56:25.670Z,58.50
2023-02-07T11:58:54.485Z,58.79
2023-02-07T12:01:28.966Z,58.25
2023-02-07T12:04:00.989Z,58.37
2023-02-07T12:07:07.999Z,58.72
2023-02-07T12:09:54.670Z,58.87
2023-02-07T12:12:38.140Z,58.90
2023-02-07T12:15:08.865Z,58.29
2023-02-07T12:17:53.044Z,58.28
2023-02-07T12:20:35.074Z,57.94
2023-02-07T12:23:41.693Z,57.35
2023-02-07T12:26:24.730Z,57.52
2023-02-07T12:29:13.233Z,57.17
2023-02-07T12:32:05.160Z,56.92
2023-02-07T12:34:34.844Z,57.36
2023-02-07T12:37:20.154Z,56.55
2023-02-07T12:39:57.002Z,56.66
2023-02-07T12:42:37.907Z,56.38
2023-02-07T12:45:05.609Z,56.80
2023-02-07T12:47:50.363Z,56.27
2023-02-07T12:50:39.272Z,55.42
2023-02-07T12:53:13.965Z,55.73
2023-02-07T12:55:45.618Z,55.64
2023-02-07T12:58:18.146Z,54.92
2023-02-07T13:01:03.504Z,54.23
2023-02-07T13:03:30.027Z,54.17
2023-02-07T13:06:09.010Z,54.01
2023-02-07T13:08:43.745Z,54.13
2023-02-07T13:11:38.967Z,54.34
2023-02-07T13:14:29.637Z,53.90
2023-02-07T13:17:28.405Z,54.23
2023-02-07T13:20:44.926Z,53.73
2023-02-07T13:23:21.023Z,53.81
2023-02-07T13:25:53.164Z,53.09
2023-02-07T13:28:30.354Z,52.94
2023-02-07T13:30:59.889Z,53.45
2023-02-07T13:33:38.998Z,52.39
2023-02-07T13:36:17.642Z,52.70
2023-02-07T13:39:11.273Z,52.59
2023-02-07T13:41:54.207Z,52.73
2023-02-07T13:44:51.877Z,52.23
2023-02-07T13:47:36.850Z,52.10
2023-02-07T13:50:46.967Z,52.90
2023-02-07T13:53:28.949Z,52.34
2023-02-07T13:56:02.630Z,51.59
2023-02-07T13:58:53.972Z,50.90
2023-02-07T14:01:24.724Z,50.38
2023-02-07T14:04:11.271Z,50.98
2023-02-07T14:06:40.308Z,51.44
2023-02-07T14:09:46.907Z,52.71
2023-02-07T14:12:27.086Z,51.90
2023-02-07T14:15:02.728Z,51.80
2023-02-07T14:17:30.395Z,52.68
2023-02-07T14:20:00.791Z,51.85
2023-02-07T14:22:31.121Z,52.67
2023-02-07T14:25:03.576Z,51.72
2023-02-07T14:27:38.689Z,51.13
2023-02-07T14:30:57.100Z,50.91
2023-02-07T14:33:34.893Z,51.02
2023-02-07T14:36:07.547Z,51.32
2023-02-07T14:38:42.909Z,50.24
2023-02-07T14:41:13.453Z,49.78
2023-02-07T14:44:07.546Z,49.86
2023-02-07T14:46:39.826Z,48.87
2023-02-07T14:49:33.472Z,49.03
2023-02-07T14:52:11.298Z,49.11
2023-02-07T14:54:47.347Z,49.42
2023-02-07T14:57:33.593Z,47.91
2023-02-07T15:00:12.273Z,48.42
2023-02-07T15:02:43.828Z,48.20
2023-02-07T15:05:13.500Z,48.16
2023-02-07T15:07:43.435Z,47.89
2023-02-07T15:10:24.447Z,47.32
2023-02-07T15:12:55.762Z,47.28
2023-02-07T15:15:30.954Z,47.33
2023-02-07T15:18:00.458Z,47.04
2023-02-07T15:20:32.913Z,46.49
2023-02-07T15:23:03.984Z,46.62
2023-02-07T15:25:32.683Z,46.44
2023-02-07T15:28:02.115Z,46.38
2023-02-07T15:30:29.926Z,47.00
2023-02-07T15:32:56.944Z,46.42
2023-02-07T15:35:26.981Z,46.36
2023-02-07T15:37:54.034Z,46.05
2023-02-07T15:40:26.345Z,46.43
2023-02-07T15:42:57.822Z,46.38
2023-02-07T15:45:28.968Z,46.40
2023-02-07T15:48:03.204Z,46.76
2023-02-07T15:50:30.863Z,47.10
2023-02-07T15:53:00.714Z,46.85
2023-02-07T15:55:27.203Z,47.20
2023-02-07T15:57:53.840Z,46.95
2023-02-07T16:00:32.110Z,47.89
2023-02-07T16:03:00.989Z,47.62
2023-02-07T16:05:31.195Z,47.07
2023-02-07T16:07:59.652Z,46.99
2023-02-07T16:10:29.076Z,46.82
2023-02-07T16:13:02.958Z,47.69
2023-02-07T16:15:36.635Z,47.28
2023-02-07T16:18:05.428Z,48.29
2023-02-07T16:20:35.943Z,46.99
2023-02-07T16:23:06.708Z,47.32
2023-02-07T16:25:35.031Z,47.95
2023-02-07T16:28:03.871Z,48.49
2023-02-07T16:30:35.171Z,48.10
2023-02-07T16:33:11.889Z,49.33
2023-02-07T16:35:38.519Z,49.48
2023-02-07T16:38:05.108Z,50.06
2023-02-07T16:40:31.700Z,49.74
2023-02-07T16:42:58.808Z,49.63
2023-02-07T16:45:28.083Z,49.00
2023-02-07T16:47:56.479Z,49.56
2023-02-07T16:50:26.632Z,49.96
2023-02-07T16:52:57.565Z,48.12
2023-02-07T16:55:27.320Z,49.53
2023-02-07T16:57:54.850Z,51.19
2023-02-07T17:00:26.377Z,50.57
2023-02-07T17:02:53.896Z,52.02
2023-02-07T17:05:22.023Z,51.87
2023-02-07T17:07:49.889Z,52.09
2023-02-07T17:10:27.522Z,52.53
2023-02-07T17:12:54.386Z,51.76
2023-02-07T17:15:21.350Z,53.56
2023-02-07T17:17:48.074Z,54.25
2023-02-07T17:20:36.223Z,53.16
2023-02-07T17:23:02.921Z,54.54
2023-02-07T17:25:31.618Z,54.01
2023-02-07T17:27:58.952Z,53.68
2023-02-07T17:30:29.834Z,54.46
2023-02-07T17:32:57.687Z,52.18
2023-02-07T17:35:24.584Z,53.76
2023-02-07T17:37:53.092Z,52.98
2023-02-07T17:40:22.522Z,54.12
2023-02-07T17:42:50.134Z,53.13
2023-02-07T17:45:17.427Z,53.13
2023-02-07T17:47:44.077Z,52.97
2023-02-07T17:50:17.205Z,54.18
2023-02-07T17:52:43.935Z,53.32
2023-02-07T17:55:10.524Z,53.48
2023-02-07T17:57:37.103Z,53.74
2023-02-07T18:00:04.817Z,54.39
2023-02-07T18:02:39.246Z,54.45
2023-02-07T18:05:06.091Z,54.79
2023-02-07T18:07:32.644Z,53.84
2023-02-07T18:09:59.179Z,54.92
2023-02-07T18:12:25.716Z,53.83
2023-02-07T18:14:52.521Z,55.05
2023-02-07T18:17:19.289Z,54.01
2023-02-07T18:19:47.161Z,55.41
2023-02-07T18:22:13.716Z,55.29
2023-02-07T18:24:40.267Z,55.61
2023-02-07T18:27:06.912Z,55.14
2023-02-07T18:29:33.597Z,54.59
2023-02-07T18:32:00.260Z,55.86
2023-02-07T18:34:26.858Z,55.00
2023-02-07T18:36:53.421Z,55.33
2023-02-07T18:39:19.980Z,55.72
2023-02-07T18:41:46.551Z,55.22
2023-02-07T18:44:13.646Z,55.25
2023-02-07T18:46:40.320Z,54.94
2023-02-07T18:49:06.888Z,55.87
2023-02-07T18:51:34.033Z,55.37
2023-02-07T18:54:00.595Z,54.87
2023-02-07T18:56:27.361Z,54.46
2023-02-07T18:58:56.539Z,55.06
2023-02-07T19:01:25.369Z,54.79
2023-02-07T19:03:58.395Z,55.71
2023-02-07T19:06:27.435Z,55.63
2023-02-07T19:08:54.074Z,54.91
2023-02-07T19:11:20.735Z,56.20
2023-02-07T19:13:47.537Z,55.37
2023-02-07T19:16:20.648Z,55.30
2023-02-07T19:18:47.964Z,54.94
2023-02-07T19:21:18.057Z,55.54
2023-02-07T19:23:44.634Z,54.99
2023-02-07T19:26:11.188Z,55.31
2023-02-07T19:28:38.301Z,55.89
2023-02-07T19:31:06.768Z,54.76
2023-02-07T19:33:33.557Z,55.83
2023-02-07T19:36:06.169Z,55.91
2023-02-07T19:38:32.952Z,55.89
2023-02-07T19:40:59.709Z,55.53
2023-02-07T19:43:26.831Z,55.36
2023-02-07T19:45:54.017Z,55.02
2023-02-07T19:48:21.934Z,53.76
2023-02-07T19:50:48.507Z,54.78
2023-02-07T19:53:16.104Z,54.39
2023-02-07T19:55:42.736Z,54.93
2023-02-07T19:58:09.325Z,55.71
2023-02-07T20:00:35.870Z,55.33
2023-02-07T20:03:02.781Z,54.29
2023-02-07T20:05:29.312Z,56.10
2023-02-07T20:07:58.004Z,55.55
2023-02-07T20:10:24.553Z,56.16
2023-02-07T20:12:51.122Z,55.61
2023-02-07T20:15:17.660Z,56.00
2023-02-07T20:17:44.252Z,55.77
2023-02-07T20:20:11.126Z,55.23
2023-02-07T20:22:37.755Z,55.85
2023-02-07T20:25:04.496Z,55.22
2023-02-07T20:27:31.095Z,55.97
2023-02-07T20:29:57.656Z,56.41
2023-02-07T20:32:24.297Z,56.47
2023-02-07T20:34:50.830Z,56.65
2023-02-07T20:37:17.364Z,56.86
2023-02-07T20:39:44.002Z,56.58
2023-02-07T20:42:10.581Z,56.61
2023-02-07T20:44:37.273Z,55.65
2023-02-07T20:47:04.803Z,56.17
2023-02-07T20:49:31.544Z,55.57
2023-02-07T20:51:59.337Z,55.87
2023-02-07T20:54:27.927Z,56.65
2023-02-07T20:56:55.461Z,56.06
2023-02-07T20:59:28.221Z,56.51
2023-02-07T21:01:55.848Z,55.42
2023-02-07T21:04:22.598Z,54.82
2023-02-07T21:06:50.440Z,56.85
2023-02-07T21:09:18.192Z,55.88
2023-02-07T21:11:47.766Z,56.60
2023-02-07T21:14:33.449Z,56.42
2023-02-07T21:17:04.252Z,56.46
2023-02-07T21:19:30.849Z,56.23
2023-02-07T21:21:57.424Z,57.45
2023-02-07T21:24:24.602Z,56.88
2023-02-07T21:26:52.981Z,56.76
2023-02-07T21:29:20.780Z,55.82
2023-02-07T21:31:47.932Z,56.33
2023-02-07T21:34:17.706Z,56.08
2023-02-07T21:36:44.965Z,55.55
2023-02-07T21:39:12.144Z,56.92
2023-02-07T21:41:41.913Z,56.51
2023-02-07T21:44:09.783Z,56.68
2023-02-07T21:46:39.379Z,57.20
2023-02-07T21:49:16.412Z,56.36
2023-02-07T21:51:45.700Z,56.36
2023-02-07T21:54:12.512Z,56.29
2023-02-07T21:56:41.653Z,55.93
2023-02-07T21:59:13.221Z,56.73
2023-02-07T22:01:39.872Z,55.78
2023-02-07T22:04:10.317Z,55.96
2023-02-07T22:06:38.924Z,54.99
2023-02-07T22:09:05.550Z,56.25
2023-02-07T22:11:34.092Z,55.92
2023-02-07T22:14:01.231Z,56.41
2023-02-07T22:16:29.727Z,56.69
2023-02-07T22:18:57.961Z,56.61
2023-02-07T22:21:30.936Z,56.15
2023-02-07T22:23:58.293Z,55.89
2023-02-07T22:26:26.350Z,55.69
2023-02-07T22:28:53.722Z,56.96
2023-02-07T22:31:26.808Z,57.73
2023-02-07T22:33:55.369Z,57.38
2023-02-07T22:36:24.797Z,56.50
2023-02-07T22:38:51.390Z,56.46
2023-02-07T22:41:18.885Z,55.40
2023-02-07T22:43:45.693Z,56.95
2023-02-07T22:46:15.240Z,56.58
2023-02-07T22:48:42.463Z,57.74
2023-02-07T22:51:22.676Z,57.34
2023-02-07T22:53:50.805Z,55.26
2023-02-07T22:56:17.358Z,59.34
2023-02-07T22:58:44.471Z,58.04
2023-02-07T23:01:22.809Z,59.05
2023-02-07T23:03:50.807Z,58.98
2023-02-07T23:06:18.029Z,57.44
2023-02-07T23:08:45.340Z,58.82
2023-02-07T23:11:14.065Z,57.64
2023-02-07T23:13:41.471Z,58.66
2023-02-07T23:16:16.752Z,58.96
2023-02-07T23:18:43.539Z,57.90
2023-02-07T23:21:11.671Z,56.07
2023-02-07T23:23:57.741Z,57.16
2023-02-07T23:26:33.334Z,58.23
2023-02-07T23:29:00.155Z,57.56
2023-02-07T23:31:26.843Z,58.14
2023-02-07T23:33:54.316Z,59.83
2023-02-07T23:36:21.588Z,58.08
2023-02-07T23:38:48.895Z,59.51
2023-02-07T23:41:16.133Z,58.27
2023-02-07T23:43:42.795Z,59.17
2023-02-07T23:46:09.621Z,58.06
2023-02-07T23:48:38.569Z,58.40
2023-02-07T23:51:06.800Z,57.67
2023-02-07T23:53:33.766Z,57.98
2023-02-07T23:56:01.080Z,58.02
2023-02-07T23:58:28.169Z,57.27
